Time;durP1;ratioP1;P1;durP2;ratioP2;P2;SDS_P1;SDS_P2;PMS_P1;PMS_P2;Temp;Humidity;BMP_temperature;BMP_pressure;BME280_temperature;BME280_humidity;BME280_pressure;Samples;Min_cycle;Max_cycle;Signal;HPM_P1;HPM_P2
2024/01/27 00:00:43;;;;;;;9.65;8.70;;;;;;;;;;6300903;28;20790;-73
2024/01/27 00:03:45;;;;;;;7.40;6.13;;;;;;;;;;6310731;28;20467;-73
2024/01/27 00:06:47;;;;;;;9.50;8.60;;;;;;;;;;6310812;28;20664;-73
2024/01/27 00:09:50;;;;;;;9.07;6.70;;;;;;;;;;6302326;28;20446;-73
2024/01/27 00:12:52;;;;;;;6.63;3.28;;;;;;;;;;6308826;28;20075;-72
2024/01/27 00:15:54;;;;;;;8.73;3.40;;;;;;;;;;6300355;28;20043;-73
2024/01/27 00:18:56;;;;;;;5.88;3.47;;;;;;;;;;6279297;28;20036;-73
2024/01/27 00:21:59;;;;;;;9.23;2.83;;;;;;;;;;6270798;28;20104;-73
2024/01/27 00:25:03;;;;;;;5.95;3.47;;;;;;;;;;6313581;28;20052;-73
2024/01/27 00:28:05;;;;;;;4.82;2.45;;;;;;;;;;6314482;28;20044;-73
2024/01/27 00:31:07;;;;;;;8.70;3.13;;;;;;;;;;6318875;28;20043;-73
2024/01/27 00:34:09;;;;;;;5.95;3.03;;;;;;;;;;6291699;28;20101;-73
2024/01/27 00:37:12;;;;;;;9.77;3.38;;;;;;;;;;6283210;28;20044;-73
2024/01/27 00:40:14;;;;;;;7.78;6.57;;;;;;;;;;6297315;28;20423;-73
2024/01/27 00:43:16;;;;;;;6.88;2.90;;;;;;;;;;6285934;28;20059;-73
2024/01/27 00:46:18;;;;;;;10.40;4.07;;;;;;;;;;6314157;28;20156;-73
2024/01/27 00:49:21;;;;;;;7.32;2.65;;;;;;;;;;6281774;28;20133;-73
2024/01/27 00:52:24;;;;;;;7.05;3.45;;;;;;;;;;6311627;28;20051;-73
2024/01/27 00:55:26;;;;;;;5.65;3.20;;;;;;;;;;6296553;28;20129;-73
2024/01/27 00:58:28;;;;;;;4.72;2.47;;;;;;;;;;6308237;28;20530;-72
2024/01/27 01:01:30;;;;;;;6.10;2.85;;;;;;;;;;6309325;28;20044;-72
2024/01/27 01:04:33;;;;;;;5.68;2.90;;;;;;;;;;6254394;28;20117;-74
2024/01/27 01:07:35;;;;;;;4.85;3.55;;;;;;;;;;6312292;28;20045;-72
2024/01/27 01:10:37;;;;;;;5.75;2.50;;;;;;;;;;6299113;28;20093;-72
2024/01/27 01:13:39;;;;;;;4.35;2.45;;;;;;;;;;6296598;28;20074;-72
2024/01/27 01:16:41;;;;;;;9.93;2.80;;;;;;;;;;6313961;28;20100;-72
2024/01/27 01:19:44;;;;;;;6.10;3.40;;;;;;;;;;6281649;28;20036;-72
2024/01/27 01:22:46;;;;;;;9.52;4.40;;;;;;;;;;6272694;28;20044;-73
2024/01/27 01:25:49;;;;;;;8.50;4.22;;;;;;;;;;6311167;28;20809;-73
2024/01/27 01:28:51;;;;;;;10.73;4.75;;;;;;;;;;6316432;28;20131;-72
2024/01/27 01:31:54;;;;;;;11.65;5.13;;;;;;;;;;6289843;28;20048;-72
2024/01/27 01:34:56;;;;;;;15.05;7.85;;;;;;;;;;6308867;28;20903;-72
2024/01/27 01:37:58;;;;;;;7.53;6.43;;;;;;;;;;6289642;28;20681;-72
2024/01/27 01:41:00;;;;;;;7.90;3.60;;;;;;;;;;6280215;28;20036;-72
2024/01/27 01:44:03;;;;;;;6.45;2.78;;;;;;;;;;6290596;28;20056;-72
2024/01/27 01:47:05;;;;;;;7.88;4.80;;;;;;;;;;6301521;28;20048;-72
2024/01/27 01:50:08;;;;;;;9.23;7.75;;;;;;;;;;6306701;28;20555;-72
2024/01/27 01:53:10;;;;;;;11.43;7.53;;;;;;;;;;6307226;28;20518;-72
2024/01/27 01:56:16;;;;;;;6.63;3.45;;;;;;;;;;6318859;28;20079;-73
2024/01/27 01:59:18;;;;;;;6.47;4.05;;;;;;;;;;6290634;28;20517;-71
2024/01/27 02:02:21;;;;;;;11.00;7.68;;;;;;;;;;6294683;28;20521;-72
2024/01/27 02:05:23;;;;;;;8.25;4.90;;;;;;;;;;6318652;28;20040;-72
2024/01/27 02:08:25;;;;;;;8.32;5.07;;;;;;;;;;6298292;28;20059;-72
2024/01/27 02:11:27;;;;;;;7.05;4.45;;;;;;;;;;6308981;28;20055;-72
2024/01/27 02:14:30;;;;;;;8.95;4.68;;;;;;;;;;6287032;28;20120;-73
2024/01/27 02:17:32;;;;;;;25.08;11.70;;;;;;;;;;6296354;28;20047;-72
2024/01/27 02:20:34;;;;;;;9.88;5.93;;;;;;;;;;6311427;28;20582;-72
2024/01/27 02:23:36;;;;;;;10.50;5.25;;;;;;;;;;6271813;28;20802;-72
2024/01/27 02:26:40;;;;;;;19.40;7.47;;;;;;;;;;6305095;28;20443;-72
2024/01/27 02:29:43;;;;;;;11.57;5.22;;;;;;;;;;6302560;28;20120;-72
2024/01/27 02:32:45;;;;;;;8.52;4.85;;;;;;;;;;6289563;28;20059;-72
2024/01/27 02:35:48;;;;;;;8.48;4.05;;;;;;;;;;6295409;28;20067;-72
2024/01/27 02:38:51;;;;;;;10.65;4.55;;;;;;;;;;6307169;28;20035;-72
2024/01/27 02:41:54;;;;;;;12.35;4.35;;;;;;;;;;6301359;28;20097;-72
2024/01/27 02:44:56;;;;;;;5.97;4.28;;;;;;;;;;6310926;28;20039;-73
2024/01/27 02:47:59;;;;;;;10.77;7.93;;;;;;;;;;6300736;28;20453;-72
2024/01/27 02:51:04;;;;;;;9.15;5.80;;;;;;;;;;6315455;28;20059;-72
2024/01/27 02:54:06;;;;;;;9.25;3.55;;;;;;;;;;6313700;28;20786;-73
2024/01/27 02:57:09;;;;;;;8.00;3.13;;;;;;;;;;6311263;28;20048;-72
2024/01/27 03:00:12;;;;;;;7.80;3.72;;;;;;;;;;6298858;28;20508;-72
2024/01/27 03:03:15;;;;;;;7.05;2.42;;;;;;;;;;6291485;28;20095;-73
2024/01/27 03:06:18;;;;;;;5.40;2.58;;;;;;;;;;6314162;28;20044;-72
2024/01/27 03:09:20;;;;;;;7.40;2.90;;;;;;;;;;6305777;28;20044;-73
2024/01/27 03:12:23;;;;;;;8.77;4.18;;;;;;;;;;6307398;28;20048;-73
2024/01/27 03:15:25;;;;;;;8.57;5.85;;;;;;;;;;6291614;28;20101;-73
2024/01/27 03:18:27;;;;;;;10.98;3.65;;;;;;;;;;6299526;28;20044;-73
2024/01/27 03:21:30;;;;;;;8.48;3.92;;;;;;;;;;6308972;28;20584;-73
2024/01/27 03:24:32;;;;;;;6.60;3.80;;;;;;;;;;6299942;28;20844;-72
2024/01/27 03:27:35;;;;;;;9.73;3.90;;;;;;;;;;6296204;28;20509;-72
2024/01/27 03:30:37;;;;;;;7.57;3.53;;;;;;;;;;6314526;28;20041;-71
2024/01/27 03:33:39;;;;;;;8.52;3.58;;;;;;;;;;6320369;27;20186;-72
2024/01/27 03:36:42;;;;;;;6.50;3.47;;;;;;;;;;6291603;28;20043;-72
2024/01/27 03:39:44;;;;;;;13.32;4.32;;;;;;;;;;6297079;28;20097;-72
2024/01/27 03:42:47;;;;;;;8.73;3.20;;;;;;;;;;6299410;28;20489;-73
2024/01/27 03:45:49;;;;;;;6.47;3.45;;;;;;;;;;6309624;28;20131;-72
2024/01/27 03:48:52;;;;;;;6.60;3.22;;;;;;;;;;6311668;28;20036;-72
2024/01/27 03:51:55;;;;;;;7.20;5.78;;;;;;;;;;6290240;28;20424;-73
2024/01/27 03:54:57;;;;;;;5.20;2.88;;;;;;;;;;6291494;28;20088;-72
2024/01/27 03:57:59;;;;;;;3.28;3.00;;;;;;;;;;6316521;28;20048;-72
2024/01/27 04:01:01;;;;;;;9.10;5.10;;;;;;;;;;6313887;28;20040;-72
2024/01/27 04:04:04;;;;;;;10.60;3.92;;;;;;;;;;6303631;28;20055;-71
2024/01/27 04:07:06;;;;;;;8.98;3.55;;;;;;;;;;6298892;28;20803;-71
2024/01/27 04:10:09;;;;;;;7.13;3.80;;;;;;;;;;6305509;28;20047;-72
2024/01/27 04:13:11;;;;;;;9.50;3.35;;;;;;;;;;6306389;28;20051;-72
2024/01/27 04:16:13;;;;;;;10.50;4.28;;;;;;;;;;6318691;28;20048;-73
2024/01/27 04:19:15;;;;;;;9.70;4.60;;;;;;;;;;6298405;28;20059;-72
2024/01/27 04:22:17;;;;;;;12.18;5.57;;;;;;;;;;6298593;28;20051;-72
2024/01/27 04:25:19;;;;;;;12.00;7.90;;;;;;;;;;6283519;28;20451;-71
2024/01/27 04:28:21;;;;;;;8.52;4.40;;;;;;;;;;6300193;28;20071;-72
2024/01/27 04:31:23;;;;;;;9.82;5.13;;;;;;;;;;6296643;28;20109;-72
2024/01/27 04:34:25;;;;;;;10.13;5.35;;;;;;;;;;6308705;28;20044;-72
2024/01/27 04:37:28;;;;;;;12.55;6.82;;;;;;;;;;6287271;28;20625;-73
2024/01/27 04:40:30;;;;;;;9.57;4.93;;;;;;;;;;6305141;28;20056;-71
2024/01/27 04:43:32;;;;;;;11.80;6.65;;;;;;;;;;6321165;28;20047;-72
2024/01/27 04:46:34;;;;;;;15.10;5.90;;;;;;;;;;6281488;28;20083;-73
2024/01/27 04:49:36;;;;;;;14.85;7.10;;;;;;;;;;6289208;28;20056;-72
2024/01/27 04:52:41;;;;;;;13.38;6.90;;;;;;;;;;6310337;28;20043;-73
2024/01/27 04:55:43;;;;;;;18.63;7.72;;;;;;;;;;6286464;28;20455;-72
2024/01/27 04:58:45;;;;;;;12.48;7.22;;;;;;;;;;6271713;28;20091;-72
2024/01/27 05:01:47;;;;;;;12.77;5.45;;;;;;;;;;6292352;28;20096;-72
2024/01/27 05:04:49;;;;;;;18.10;5.75;;;;;;;;;;6302689;28;20054;-73
2024/01/27 05:07:51;;;;;;;10.20;4.65;;;;;;;;;;6290586;28;20062;-72
2024/01/27 05:10:53;;;;;;;13.32;6.35;;;;;;;;;;6303847;28;20097;-72
2024/01/27 05:14:00;;;;;;;11.80;5.15;;;;;;;;;;6307669;28;20122;-73
2024/01/27 05:17:02;;;;;;;10.25;6.30;;;;;;;;;;6300968;28;20650;-73
2024/01/27 05:20:05;;;;;;;11.10;4.35;;;;;;;;;;6280978;28;20049;-73
2024/01/27 05:23:07;;;;;;;10.95;5.20;;;;;;;;;;6281755;28;20052;-73
2024/01/27 05:26:10;;;;;;;11.85;7.22;;;;;;;;;;6302737;28;20506;-73
2024/01/27 05:29:13;;;;;;;10.82;4.00;;;;;;;;;;6303939;28;20526;-72
2024/01/27 05:32:15;;;;;;;9.13;4.30;;;;;;;;;;6313875;28;20106;-73
2024/01/27 05:35:17;;;;;;;11.75;3.47;;;;;;;;;;6292395;28;20043;-72
2024/01/27 05:38:19;;;;;;;12.48;7.53;;;;;;;;;;6290043;28;20075;-72
2024/01/27 05:41:25;;;;;;;7.10;3.67;;;;;;;;;;6296924;28;20043;-72
2024/01/27 05:44:27;;;;;;;17.02;6.32;;;;;;;;;;6305349;28;20044;-72
2024/01/27 05:47:29;;;;;;;9.35;5.30;;;;;;;;;;6301354;28;20089;-72
2024/01/27 05:50:32;;;;;;;9.02;5.32;;;;;;;;;;6311329;28;20040;-73
2024/01/27 05:53:35;;;;;;;10.55;8.45;;;;;;;;;;6310933;28;20607;-72
2024/01/27 05:56:38;;;;;;;10.85;5.13;;;;;;;;;;6299644;28;20191;-73
2024/01/27 05:59:40;;;;;;;12.45;8.10;;;;;;;;;;6315335;28;20662;-73
2024/01/27 06:02:42;;;;;;;14.32;6.40;;;;;;;;;;6299678;28;20052;-73
2024/01/27 06:05:44;;;;;;;10.88;5.38;;;;;;;;;;6302214;28;20130;-73
2024/01/27 06:08:46;;;;;;;14.02;8.57;;;;;;;;;;6306960;28;20052;-72
2024/01/27 06:11:48;;;;;;;13.02;7.68;;;;;;;;;;6301226;28;20047;-71
2024/01/27 06:14:50;;;;;;;8.88;5.10;;;;;;;;;;6312305;28;20623;-72
2024/01/27 06:17:52;;;;;;;12.98;6.25;;;;;;;;;;6308064;28;20044;-73
2024/01/27 06:20:55;;;;;;;11.13;5.00;;;;;;;;;;6300030;28;20612;-70
2024/01/27 06:23:57;;;;;;;13.05;5.18;;;;;;;;;;6305416;28;20134;-72
2024/01/27 06:27:00;;;;;;;8.45;5.13;;;;;;;;;;6312059;28;20066;-72
2024/01/27 06:30:02;;;;;;;8.68;3.85;;;;;;;;;;6294365;28;20067;-72
2024/01/27 06:33:04;;;;;;;8.07;5.00;;;;;;;;;;6301015;28;20032;-72
2024/01/27 06:36:09;;;;;;;13.68;5.80;;;;;;;;;;6311147;28;20052;-71
2024/01/27 06:39:11;;;;;;;17.55;7.05;;;;;;;;;;6302193;28;20051;-71
2024/01/27 06:42:13;;;;;;;16.77;9.90;;;;;;;;;;6311558;28;20048;-71
2024/01/27 06:45:15;;;;;;;32.28;18.30;;;;;;;;;;6312018;28;20048;-71
2024/01/27 06:48:17;;;;;;;22.38;11.93;;;;;;;;;;6307588;28;20060;-72
2024/01/27 06:51:20;;;;;;;29.80;19.48;;;;;;;;;;6301895;28;20044;-71
2024/01/27 06:54:22;;;;;;;31.25;19.48;;;;;;;;;;6279969;28;20047;-71
2024/01/27 06:57:24;;;;;;;11.93;7.78;;;;;;;;;;6305198;28;20074;-71
2024/01/27 07:00:27;;;;;;;21.63;9.88;;;;;;;;;;6326748;28;20035;-71
2024/01/27 07:03:29;;;;;;;18.80;10.20;;;;;;;;;;6305663;28;20043;-71
2024/01/27 07:06:31;;;;;;;18.35;11.45;;;;;;;;;;6300303;28;20071;-71
2024/01/27 07:09:33;;;;;;;12.43;8.43;;;;;;;;;;6305113;28;20135;-72
2024/01/27 07:12:36;;;;;;;16.98;8.55;;;;;;;;;;6300298;28;20047;-72
2024/01/27 07:15:41;;;;;;;12.93;7.28;;;;;;;;;;6302752;28;20068;-72
2024/01/27 07:18:43;;;;;;;14.25;9.52;;;;;;;;;;6318161;28;20048;-72
2024/01/27 07:21:45;;;;;;;9.30;6.47;;;;;;;;;;6302167;28;20092;-72
2024/01/27 07:24:50;;;;;;;13.48;8.63;;;;;;;;;;6303675;28;20052;-71
2024/01/27 07:27:53;;;;;;;10.27;9.43;;;;;;;;;;6297391;28;20716;-71
2024/01/27 07:30:56;;;;;;;12.80;6.25;;;;;;;;;;6315203;28;20039;-71
2024/01/27 07:33:58;;;;;;;5.45;3.60;;;;;;;;;;6297557;28;20097;-71
2024/01/27 07:37:00;;;;;;;11.07;5.07;;;;;;;;;;6294709;28;20047;-71
2024/01/27 07:40:03;;;;;;;4.35;2.85;;;;;;;;;;6306260;28;20148;-71
2024/01/27 07:43:05;;;;;;;5.13;4.72;;;;;;;;;;6285432;28;20045;-71
2024/01/27 07:46:07;;;;;;;3.47;2.83;;;;;;;;;;6319084;28;20126;-71
2024/01/27 07:49:09;;;;;;;6.53;2.85;;;;;;;;;;6296963;28;20036;-71
2024/01/27 07:52:12;;;;;;;4.95;3.58;;;;;;;;;;6311868;28;20127;-71
2024/01/27 07:55:14;;;;;;;5.00;4.15;;;;;;;;;;6316608;28;20800;-71
2024/01/27 07:58:16;;;;;;;7.43;3.33;;;;;;;;;;6290910;28;20056;-71
2024/01/27 08:01:19;;;;;;;4.30;3.28;;;;;;;;;;6314980;28;20188;-71
2024/01/27 08:04:21;;;;;;;3.60;2.70;;;;;;;;;;6289587;28;20083;-71
2024/01/27 08:07:23;;;;;;;9.00;7.88;;;;;;;;;;6317668;28;20744;-73
2024/01/27 08:10:25;;;;;;;5.63;3.35;;;;;;;;;;6290580;28;20123;-71
2024/01/27 08:13:27;;;;;;;7.00;3.92;;;;;;;;;;6310098;28;20056;-71
2024/01/27 08:16:29;;;;;;;7.47;4.28;;;;;;;;;;6298646;28;20051;-71
2024/01/27 08:19:31;;;;;;;8.40;4.60;;;;;;;;;;6288028;28;20217;-71
2024/01/27 08:22:34;;;;;;;5.82;5.05;;;;;;;;;;6312857;28;20044;-71
2024/01/27 08:25:36;;;;;;;9.05;6.25;;;;;;;;;;6312256;28;20109;-71
2024/01/27 08:28:38;;;;;;;7.40;6.25;;;;;;;;;;6304974;28;20154;-71
2024/01/27 08:31:40;;;;;;;9.98;8.98;;;;;;;;;;6305227;28;20812;-71
2024/01/27 08:34:43;;;;;;;18.13;10.75;;;;;;;;;;6288324;28;20043;-70
2024/01/27 08:37:45;;;;;;;7.68;6.85;;;;;;;;;;6288439;28;20036;-71
2024/01/27 08:40:47;;;;;;;8.50;5.45;;;;;;;;;;6288904;28;20040;-71
2024/01/27 08:43:49;;;;;;;9.10;7.10;;;;;;;;;;6312764;28;20233;-71
2024/01/27 08:46:52;;;;;;;10.60;6.53;;;;;;;;;;6318638;28;20051;-71
2024/01/27 08:49:55;;;;;;;9.05;4.40;;;;;;;;;;6308494;28;20562;-72
2024/01/27 08:52:57;;;;;;;9.00;6.13;;;;;;;;;;6314623;28;20033;-70
2024/01/27 08:56:00;;;;;;;8.15;6.50;;;;;;;;;;6312770;28;20433;-72
2024/01/27 08:59:03;;;;;;;9.35;5.75;;;;;;;;;;6289769;28;20047;-71
2024/01/27 09:02:05;;;;;;;6.18;4.15;;;;;;;;;;6295153;28;20052;-71
2024/01/27 09:05:08;;;;;;;5.80;4.25;;;;;;;;;;6316568;28;20747;-71
2024/01/27 09:08:10;;;;;;;12.23;6.35;;;;;;;;;;6288925;28;20077;-71
2024/01/27 09:11:13;;;;;;;5.93;4.45;;;;;;;;;;6309125;28;20040;-72
2024/01/27 09:14:15;;;;;;;10.32;5.10;;;;;;;;;;6313058;28;20164;-71
2024/01/27 09:17:17;;;;;;;12.20;7.05;;;;;;;;;;6324163;28;20040;-71
2024/01/27 09:20:19;;;;;;;6.95;5.43;;;;;;;;;;6314151;28;20078;-71
2024/01/27 09:23:21;;;;;;;6.32;3.35;;;;;;;;;;6306586;28;20498;-72
2024/01/27 09:26:24;;;;;;;6.93;5.03;;;;;;;;;;6310081;28;20146;-72
2024/01/27 09:29:26;;;;;;;10.38;5.75;;;;;;;;;;6319405;28;20106;-71
2024/01/27 09:32:28;;;;;;;7.03;4.20;;;;;;;;;;6307255;28;20048;-70
2024/01/27 09:35:30;;;;;;;8.48;5.30;;;;;;;;;;6312622;28;20048;-71
2024/01/27 09:38:32;;;;;;;6.63;5.00;;;;;;;;;;6304827;28;20101;-71
2024/01/27 09:41:34;;;;;;;5.47;2.72;;;;;;;;;;6307513;28;20086;-71
2024/01/27 09:44:37;;;;;;;7.38;4.07;;;;;;;;;;6275088;28;20048;-71
2024/01/27 09:47:39;;;;;;;7.07;4.78;;;;;;;;;;6293366;28;20048;-70
2024/01/27 09:50:41;;;;;;;7.05;3.63;;;;;;;;;;6317357;28;20047;-70
2024/01/27 09:53:44;;;;;;;4.97;3.97;;;;;;;;;;6295474;28;20040;-70
2024/01/27 09:56:48;;;;;;;4.25;3.55;;;;;;;;;;6300119;28;20052;-71
2024/01/27 09:59:50;;;;;;;5.65;2.80;;;;;;;;;;6314201;28;20116;-72
2024/01/27 10:02:54;;;;;;;5.03;3.20;;;;;;;;;;6311234;28;20147;-71
2024/01/27 10:05:58;;;;;;;4.32;3.78;;;;;;;;;;6294760;28;20751;-69
2024/01/27 10:09:00;;;;;;;4.90;3.38;;;;;;;;;;6314395;28;20040;-71
2024/01/27 10:12:03;;;;;;;4.78;3.80;;;;;;;;;;6318203;28;20036;-71
2024/01/27 10:15:05;;;;;;;3.58;3.10;;;;;;;;;;6304761;28;20035;-71
2024/01/27 10:18:12;;;;;;;3.97;3.13;;;;;;;;;;6313177;28;20779;-71
2024/01/27 10:21:16;;;;;;;4.70;2.70;;;;;;;;;;6311599;28;20589;-71
2024/01/27 10:24:18;;;;;;;4.63;3.53;;;;;;;;;;6298112;28;20051;-70
2024/01/27 10:27:20;;;;;;;3.20;2.83;;;;;;;;;;6311429;28;20039;-71
2024/01/27 10:30:23;;;;;;;3.50;2.67;;;;;;;;;;6293383;28;20518;-72
2024/01/27 10:33:29;;;;;;;4.80;3.55;;;;;;;;;;6314288;28;20102;-70
2024/01/27 10:36:41;;;;;;;4.03;3.53;;;;;;;;;;6312638;28;20071;-71
2024/01/27 10:39:44;;;;;;;3.58;2.28;;;;;;;;;;6313331;28;20039;-71
2024/01/27 10:42:55;;;;;;;3.95;3.05;;;;;;;;;;6313876;28;20048;-72
2024/01/27 10:45:57;;;;;;;4.03;3.30;;;;;;;;;;6281741;28;20478;-71
2024/01/27 10:48:59;;;;;;;5.75;4.28;;;;;;;;;;6303200;28;20744;-71
2024/01/27 10:52:04;;;;;;;3.70;2.78;;;;;;;;;;6285686;28;20059;-71
2024/01/27 10:55:07;;;;;;;3.40;2.38;;;;;;;;;;6298220;28;20041;-71
2024/01/27 10:58:11;;;;;;;5.03;3.72;;;;;;;;;;6322631;28;20043;-71
2024/01/27 11:01:14;;;;;;;3.38;2.58;;;;;;;;;;6274823;28;20083;-71
2024/01/27 11:04:16;;;;;;;3.95;2.17;;;;;;;;;;6306549;28;20056;-71
2024/01/27 11:07:22;;;;;;;3.90;3.15;;;;;;;;;;6319800;28;20051;-71
2024/01/27 11:10:24;;;;;;;3.97;2.78;;;;;;;;;;6278207;28;20159;-72
2024/01/27 11:13:30;;;;;;;4.97;4.30;;;;;;;;;;6274488;28;20113;-72
2024/01/27 11:16:33;;;;;;;4.18;2.65;;;;;;;;;;6297990;28;20044;-72
2024/01/27 11:19:35;;;;;;;5.90;4.00;;;;;;;;;;6269414;28;20044;-71
2024/01/27 11:22:39;;;;;;;4.60;3.22;;;;;;;;;;6313186;28;20044;-71
2024/01/27 11:25:41;;;;;;;5.75;2.95;;;;;;;;;;6302182;28;20055;-70
2024/01/27 11:28:43;;;;;;;4.25;3.42;;;;;;;;;;6314843;28;20047;-71
2024/01/27 11:31:46;;;;;;;9.65;2.85;;;;;;;;;;6314177;28;20036;-71
2024/01/27 11:34:48;;;;;;;5.45;3.75;;;;;;;;;;6315880;28;20074;-70
2024/01/27 11:37:52;;;;;;;6.30;3.47;;;;;;;;;;6313097;28;20226;-71
2024/01/27 11:40:54;;;;;;;6.53;3.05;;;;;;;;;;6306639;28;20059;-71
2024/01/27 11:43:59;;;;;;;3.88;3.30;;;;;;;;;;6305807;28;20085;-71
2024/01/27 11:47:02;;;;;;;5.00;3.35;;;;;;;;;;6300447;28;20248;-71
2024/01/27 11:50:06;;;;;;;5.45;3.20;;;;;;;;;;6290447;28;20573;-71
2024/01/27 11:53:09;;;;;;;5.55;4.20;;;;;;;;;;6310586;28;20055;-71
2024/01/27 11:56:12;;;;;;;4.40;3.33;;;;;;;;;;6305714;28;20051;-71
2024/01/27 11:59:15;;;;;;;4.60;3.42;;;;;;;;;;6317108;28;20120;-71
2024/01/27 12:02:17;;;;;;;4.95;3.50;;;;;;;;;;6307197;28;20051;-71
2024/01/27 12:05:19;;;;;;;5.38;3.70;;;;;;;;;;6295419;28;20446;-71
2024/01/27 12:08:21;;;;;;;5.47;3.55;;;;;;;;;;6309854;28;20044;-72
2024/01/27 12:11:24;;;;;;;6.07;4.63;;;;;;;;;;6293820;28;20048;-71
2024/01/27 12:14:41;;;;;;;9.15;8.35;;;;;;;;;;6304235;28;20721;-71
2024/01/27 12:17:50;;;;;;;5.28;4.30;;;;;;;;;;6299838;28;20868;-71
2024/01/27 12:20:57;;;;;;;13.15;7.97;;;;;;;;;;6298457;28;20052;-71
2024/01/27 12:24:00;;;;;;;7.25;4.65;;;;;;;;;;6317993;28;20043;-71
2024/01/27 12:27:02;;;;;;;5.68;4.03;;;;;;;;;;6290524;28;20047;-72
2024/01/27 12:30:05;;;;;;;5.25;3.97;;;;;;;;;;6293215;28;20549;-71
2024/01/27 12:33:09;;;;;;;7.57;4.15;;;;;;;;;;6318204;28;20042;-71
2024/01/27 12:36:12;;;;;;;4.93;3.95;;;;;;;;;;6293144;28;20792;-72
2024/01/27 12:39:15;;;;;;;4.43;3.53;;;;;;;;;;6289394;28;20109;-73
2024/01/27 12:42:17;;;;;;;4.53;3.90;;;;;;;;;;6294368;28;20157;-72
2024/01/27 12:45:19;;;;;;;6.03;3.72;;;;;;;;;;6308899;28;20087;-72
2024/01/27 12:48:26;;;;;;;4.70;3.65;;;;;;;;;;6304873;28;20059;-74
2024/01/27 12:51:29;;;;;;;8.70;8.00;;;;;;;;;;6308975;28;20759;-73
2024/01/27 12:54:32;;;;;;;5.72;4.43;;;;;;;;;;6287730;28;20052;-73
2024/01/27 12:57:35;;;;;;;3.97;2.22;;;;;;;;;;6295648;28;20043;-72
2024/01/27 13:00:38;;;;;;;6.10;4.40;;;;;;;;;;6311957;28;20174;-74
2024/01/27 13:03:40;;;;;;;6.78;6.28;;;;;;;;;;6308363;28;20412;-72
2024/01/27 13:06:46;;;;;;;4.35;3.35;;;;;;;;;;6317331;28;20545;-72
2024/01/27 13:09:49;;;;;;;4.03;3.45;;;;;;;;;;6297438;28;20071;-71
2024/01/27 13:12:51;;;;;;;5.45;3.28;;;;;;;;;;6311855;28;20047;-71
2024/01/27 13:15:53;;;;;;;4.25;2.42;;;;;;;;;;6295751;28;20052;-71
2024/01/27 13:18:55;;;;;;;4.28;3.00;;;;;;;;;;6291936;28;20040;-71
2024/01/27 13:21:58;;;;;;;3.85;2.15;;;;;;;;;;6307866;28;20089;-71
2024/01/27 13:25:01;;;;;;;3.70;2.22;;;;;;;;;;6318394;28;20074;-72
2024/01/27 13:28:11;;;;;;;5.60;5.20;;;;;;;;;;6309489;28;20527;-70
2024/01/27 13:31:13;;;;;;;3.50;1.98;;;;;;;;;;6297322;28;20124;-70
2024/01/27 13:34:15;;;;;;;2.97;2.00;;;;;;;;;;6308036;28;20135;-71
2024/01/27 13:37:17;;;;;;;5.97;2.42;;;;;;;;;;6315012;28;20056;-71
2024/01/27 13:40:19;;;;;;;3.78;3.30;;;;;;;;;;6303244;28;20056;-71
2024/01/27 13:43:22;;;;;;;3.00;2.20;;;;;;;;;;6313823;28;20131;-71
2024/01/27 13:46:24;;;;;;;2.95;2.00;;;;;;;;;;6308333;28;20115;-71
2024/01/27 13:49:27;;;;;;;2.28;1.38;;;;;;;;;;6309428;28;20056;-71
2024/01/27 13:52:30;;;;;;;3.80;2.28;;;;;;;;;;6309695;28;20093;-71
2024/01/27 13:55:32;;;;;;;5.93;2.70;;;;;;;;;;6317706;28;20043;-71
2024/01/27 13:58:34;;;;;;;3.47;2.13;;;;;;;;;;6316013;28;20177;-71
2024/01/27 14:01:36;;;;;;;3.47;2.25;;;;;;;;;;6317748;28;20079;-71
2024/01/27 14:04:38;;;;;;;2.67;1.80;;;;;;;;;;6304678;28;20093;-71
2024/01/27 14:07:40;;;;;;;3.13;1.92;;;;;;;;;;6309294;28;20150;-71
2024/01/27 14:10:43;;;;;;;4.40;2.55;;;;;;;;;;6309162;28;20052;-71
2024/01/27 14:13:45;;;;;;;3.88;1.48;;;;;;;;;;6292500;28;20051;-71
2024/01/27 14:16:47;;;;;;;3.60;1.98;;;;;;;;;;6309379;28;20048;-72
2024/01/27 14:19:50;;;;;;;4.60;2.55;;;;;;;;;;6306941;28;20662;-71
2024/01/27 14:22:52;;;;;;;3.63;1.80;;;;;;;;;;6296562;28;20044;-71
2024/01/27 14:25:54;;;;;;;2.33;1.52;;;;;;;;;;6285988;28;20133;-71
2024/01/27 14:28:56;;;;;;;4.25;1.98;;;;;;;;;;6300600;28;20048;-71
2024/01/27 14:31:58;;;;;;;3.17;1.88;;;;;;;;;;6293325;28;20044;-71
2024/01/27 14:35:00;;;;;;;2.80;1.75;;;;;;;;;;6306184;28;20044;-71
2024/01/27 14:38:02;;;;;;;5.13;1.92;;;;;;;;;;6310955;28;20052;-71
2024/01/27 14:41:05;;;;;;;2.92;2.10;;;;;;;;;;6299652;28;20098;-72
2024/01/27 14:44:07;;;;;;;4.28;3.00;;;;;;;;;;6304223;28;20119;-73
2024/01/27 14:47:10;;;;;;;3.88;2.50;;;;;;;;;;6320429;28;20765;-72
2024/01/27 14:50:12;;;;;;;2.53;1.42;;;;;;;;;;6306274;28;20725;-72
2024/01/27 14:53:14;;;;;;;4.88;2.42;;;;;;;;;;6319301;28;20430;-73
2024/01/27 14:56:17;;;;;;;4.45;3.05;;;;;;;;;;6304968;28;20517;-73
2024/01/27 14:59:20;;;;;;;5.53;3.72;;;;;;;;;;6320794;28;20868;-74
2024/01/27 15:02:22;;;;;;;5.55;2.13;;;;;;;;;;6304532;28;20040;-72
2024/01/27 15:05:29;;;;;;;7.68;2.70;;;;;;;;;;6320303;28;20047;-72
2024/01/27 15:08:32;;;;;;;6.90;6.18;;;;;;;;;;6318779;28;20437;-72
2024/01/27 15:11:34;;;;;;;5.35;4.95;;;;;;;;;;6309585;28;20116;-73
2024/01/27 15:14:36;;;;;;;3.30;2.30;;;;;;;;;;6308910;28;20071;-73
2024/01/27 15:17:38;;;;;;;5.28;2.83;;;;;;;;;;6302305;28;20055;-73
2024/01/27 15:20:40;;;;;;;4.30;2.13;;;;;;;;;;6300820;28;20064;-73
2024/01/27 15:23:42;;;;;;;4.07;2.80;;;;;;;;;;6295364;28;20534;-73
2024/01/27 15:26:46;;;;;;;5.90;3.35;;;;;;;;;;6309155;28;20047;-73
2024/01/27 15:29:51;;;;;;;5.72;2.53;;;;;;;;;;6294412;28;20052;-73
2024/01/27 15:32:57;;;;;;;4.68;2.95;;;;;;;;;;6298138;28;20528;-73
2024/01/27 15:35:59;;;;;;;7.13;2.47;;;;;;;;;;6312674;28;20056;-72
2024/01/27 15:39:01;;;;;;;2.45;1.73;;;;;;;;;;6306393;28;20066;-71
2024/01/27 15:42:04;;;;;;;4.20;2.30;;;;;;;;;;6307592;28;20953;-73
2024/01/27 15:45:09;;;;;;;5.35;1.58;;;;;;;;;;6308076;28;20047;-73
2024/01/27 15:48:13;;;;;;;3.97;1.88;;;;;;;;;;6298437;28;20043;-74
2024/01/27 15:51:16;;;;;;;3.20;2.15;;;;;;;;;;6278807;28;20066;-74
2024/01/27 15:54:21;;;;;;;3.70;2.85;;;;;;;;;;6311968;28;20040;-72
2024/01/27 15:57:25;;;;;;;3.58;1.70;;;;;;;;;;6304412;28;20078;-72
2024/01/27 16:00:28;;;;;;;4.65;2.97;;;;;;;;;;6292012;28;20052;-73
2024/01/27 16:03:31;;;;;;;2.70;1.88;;;;;;;;;;6293373;28;20146;-73
2024/01/27 16:06:33;;;;;;;5.43;1.95;;;;;;;;;;6313766;28;20071;-73
2024/01/27 16:09:39;;;;;;;4.63;1.70;;;;;;;;;;6296072;28;20028;-73
2024/01/27 16:12:42;;;;;;;5.53;2.30;;;;;;;;;;6287323;28;20032;-74
2024/01/27 16:15:45;;;;;;;8.18;2.67;;;;;;;;;;6310341;28;20154;-72
2024/01/27 16:18:47;;;;;;;4.82;3.67;;;;;;;;;;6303271;28;20509;-72
2024/01/27 16:21:51;;;;;;;6.85;3.97;;;;;;;;;;6290816;28;20052;-72
2024/01/27 16:24:53;;;;;;;6.40;3.67;;;;;;;;;;6286545;28;20040;-72
2024/01/27 16:27:55;;;;;;;4.07;2.17;;;;;;;;;;6295939;28;20051;-72
2024/01/27 16:30:57;;;;;;;6.43;2.55;;;;;;;;;;6274908;28;20075;-69
2024/01/27 16:34:00;;;;;;;3.33;2.13;;;;;;;;;;6312015;28;20048;-73
2024/01/27 16:37:03;;;;;;;4.38;1.88;;;;;;;;;;6310781;28;20050;-73
2024/01/27 16:40:07;;;;;;;4.75;2.45;;;;;;;;;;6266625;28;20090;-73
2024/01/27 16:43:09;;;;;;;4.28;2.40;;;;;;;;;;6278270;28;20166;-73
2024/01/27 16:46:11;;;;;;;5.35;2.83;;;;;;;;;;6313051;28;20530;-73
2024/01/27 16:49:13;;;;;;;5.80;3.13;;;;;;;;;;6313417;28;20052;-71
2024/01/27 16:52:15;;;;;;;5.68;2.65;;;;;;;;;;6312038;28;20032;-72
2024/01/27 16:55:19;;;;;;;5.50;2.40;;;;;;;;;;6306529;28;20439;-72
2024/01/27 16:58:22;;;;;;;4.25;3.03;;;;;;;;;;6304995;28;20079;-72
2024/01/27 17:01:25;;;;;;;4.85;4.28;;;;;;;;;;6316530;28;20879;-73
2024/01/27 17:04:27;;;;;;;7.43;4.97;;;;;;;;;;6309388;28;21017;-72
2024/01/27 17:07:31;;;;;;;3.90;2.65;;;;;;;;;;6307974;28;20048;-73
2024/01/27 17:10:34;;;;;;;13.63;3.25;;;;;;;;;;6317654;28;20154;-73
2024/01/27 17:13:35;;;;;;;4.65;3.35;;;;;;;;;;6308739;28;20039;-71
2024/01/27 17:16:38;;;;;;;8.25;7.57;;;;;;;;;;6310159;28;20729;-71
2024/01/27 17:19:40;;;;;;;4.68;3.03;;;;;;;;;;6307508;28;20853;-72
2024/01/27 17:22:42;;;;;;;6.28;3.45;;;;;;;;;;6304526;28;20067;-71
2024/01/27 17:25:45;;;;;;;6.82;4.97;;;;;;;;;;6316149;28;20044;-70
2024/01/27 17:28:47;;;;;;;8.50;4.90;;;;;;;;;;6304166;28;20127;-70
2024/01/27 17:31:50;;;;;;;22.38;11.18;;;;;;;;;;6306332;28;20106;-73
2024/01/27 17:34:52;;;;;;;9.45;3.95;;;;;;;;;;6279582;28;20124;-72
2024/01/27 17:37:55;;;;;;;8.55;5.80;;;;;;;;;;6302174;28;20139;-72
2024/01/27 17:40:57;;;;;;;9.50;5.82;;;;;;;;;;6260283;28;20091;-71
2024/01/27 17:43:59;;;;;;;4.63;3.72;;;;;;;;;;6306017;28;20047;-71
2024/01/27 17:47:02;;;;;;;8.95;5.03;;;;;;;;;;6297995;28;20055;-71
2024/01/27 17:50:05;;;;;;;12.60;6.75;;;;;;;;;;6315427;28;20610;-72
2024/01/27 17:53:07;;;;;;;6.22;3.78;;;;;;;;;;6290910;28;20036;-71
2024/01/27 17:56:09;;;;;;;9.32;3.80;;;;;;;;;;6275001;28;20045;-71
2024/01/27 17:59:12;;;;;;;8.20;4.93;;;;;;;;;;6305975;28;20182;-72
2024/01/27 18:02:16;;;;;;;11.60;5.30;;;;;;;;;;6309425;28;20551;-72
2024/01/27 18:05:18;;;;;;;6.80;4.88;;;;;;;;;;6311836;28;20040;-71
2024/01/27 18:08:21;;;;;;;7.28;5.65;;;;;;;;;;6296594;28;20039;-71
2024/01/27 18:11:24;;;;;;;11.57;7.53;;;;;;;;;;6305006;28;20075;-71